Hlavní strana
METAR-TAF:

METAR-TAF

Letiště :

Kuvajt, Kuvajt

zeměpisná šířka: 29-13N, zeměpisná délka: 047-59E, výška: 55 m

Aktuální stav počasí

Zpráva byla vytvořena před 39 minutami, v 08:00 UTC
Severoseverovýchodní vítr 3 kt
Teplota 21°C
Vlhkost vzduchu 53%
Tlak 1019 hPa
Viditelnost: 6000 m
Skoro jasno ve výšce 4000 ft
Oblačno až skoro zataženo ve výšce 8000 ft

METAR: OKBK 100800Z 03003KT 6000 FEW040 BKN080 21/11 Q1019 NOSIG

Čas: 11:39 (08:39 UTC)

Předpověď počasí

Zpráva byla vytvořena před 3 hodinami a 34 minutami, v 05:05 UTC
Předpověď platná od 10 v 06 UTC do 11 v 12 UTC
Severoseverovýchodní vítr 10 kt
Viditelnost: 7000 m
Dočasný
od 10 v 06 UTC do 10 v 15 UTC
vítr z různých směrů 3 kt
Viditelnost: 3000 m
kouřmo

TAF: OKBK 100505Z 1006/1112 02010KT 7000 NSC TEMPO 1006/1015 VRB03KT 3000 BR

Stav a předpovědi počasí z více než 4 000 letišť (zprávy METAR a TAF).

Červené a žluté tečky na mapě představují dostupné meteorologické stanice.

Když kurzor umístíte na tečku, zobrazí se název stanice.

Pak kliknutím zobrazíte stav a předpověď počasí.

Chcete-li změnit mapu, kliknutím na zelené tlačítko se znaménkem +mapu přiblížíte, kliknutím na zelené tlačítko se znaménkem – mapu oddálíte a kliknutím na zelené šipky přejdete na sousední mapy.


METAR-TAF: